Terminal Aerodrome Forecast
Issued by NWS Milwaukee/Sullivan, WI

Home | Current Version | Previous Version | Text Only | Print | Product List | Glossary On
Versions: 1 2 3 4 5 6 7 8 9 10 11 12 13 14 15 16 17 18 19 20 21 22 23
000
FTUS43 KMKX 232341
TAFMSN
TAF
KMSN 232341Z 2400/2424 15011KT P6SM VCSH SCT050 OVC070
     FM240200 11009KT 4SM -RA SCT035 OVC050
     FM240900 12011KT 6SM -RA OVC025
     FM241400 14017KT 5SM -RA BR SCT025 OVC050CB PROB30 2414/2420
      3SM -TSRA BKN035 OVC050CB=

USA.gov is the U.S. government's official web portal to all federal, state and local government web resources and services.